Time;durP1;ratioP1;P1;durP2;ratioP2;P2;SDS_P1;SDS_P2;PMS_P1;PMS_P2;Temp;Humidity;BMP_temperature;BMP_pressure;BME280_temperature;BME280_humidity;BME280_pressure;Samples;Min_cycle;Max_cycle;Signal;HPM_P1;HPM_P2
2021/06/06 00:02:10;;;;;;;6.50;3.03;;;;;;;13.58;61.56;101937.09;4954732;29;20074;-45
2021/06/06 00:04:43;;;;;;;10.50;3.97;;;;;;;13.62;61.60;101929.72;4936998;29;20039;-47
2021/06/06 00:07:13;;;;;;;15.82;4.50;;;;;;;13.60;61.82;101942.34;4953980;28;20047;-45
2021/06/06 00:09:40;;;;;;;8.68;5.05;;;;;;;13.58;61.81;101941.88;4954616;29;20039;-43
2021/06/06 00:12:07;;;;;;;6.38;4.32;;;;;;;13.62;61.84;101938.06;4954199;28;20051;-46
2021/06/06 00:14:37;;;;;;;12.00;4.40;;;;;;;13.52;62.08;101937.63;4953606;29;20057;-49
2021/06/06 00:17:09;;;;;;;11.95;4.28;;;;;;;13.44;62.38;101933.75;4954138;29;20098;-44
2021/06/06 00:19:37;;;;;;;8.50;3.80;;;;;;;13.43;62.34;101943.25;4953574;29;20097;-45
2021/06/06 00:22:05;;;;;;;24.83;4.57;;;;;;;13.37;62.26;101933.44;4958163;28;20081;-48
2021/06/06 00:24:35;;;;;;;11.75;3.67;;;;;;;13.31;62.64;101930.06;4948300;29;20444;-45
2021/06/06 00:27:03;;;;;;;13.70;5.03;;;;;;;13.30;62.66;101927.59;4954086;29;20051;-44
2021/06/06 00:29:30;;;;;;;6.35;2.60;;;;;;;13.30;62.60;101935.94;4953740;29;20067;-46
2021/06/06 00:31:57;;;;;;;9.80;3.13;;;;;;;13.26;62.72;101944.13;4940223;29;20047;-43
2021/06/06 00:34:25;;;;;;;12.43;3.15;;;;;;;13.29;62.96;101940.69;4953426;29;20079;-43
2021/06/06 00:36:52;;;;;;;9.93;2.95;;;;;;;13.29;62.87;101937.13;4953327;29;20086;-47
2021/06/06 00:39:22;;;;;;;10.95;5.28;;;;;;;13.25;62.92;101945.31;4954036;29;20142;-46
2021/06/06 00:41:51;;;;;;;11.63;2.70;;;;;;;13.19;63.03;101945.81;4953086;29;20035;-47
2021/06/06 00:44:19;;;;;;;9.70;2.63;;;;;;;13.21;62.95;101937.97;4954182;29;20137;-45
2021/06/06 00:46:46;;;;;;;10.80;3.13;;;;;;;13.25;62.96;101944.47;4952455;29;20134;-44
2021/06/06 00:49:13;;;;;;;9.18;3.13;;;;;;;13.19;63.20;101951.38;4953860;28;20057;-44
2021/06/06 00:51:43;;;;;;;6.65;3.10;;;;;;;13.20;63.31;101953.00;4953775;29;20049;-47
2021/06/06 00:54:21;;;;;;;9.63;2.75;;;;;;;13.22;63.18;101959.06;4953594;29;20039;-49
2021/06/06 00:56:51;;;;;;;5.60;2.65;;;;;;;13.26;63.08;101951.69;4936057;29;20039;-47
2021/06/06 00:59:24;;;;;;;13.40;2.80;;;;;;;13.26;62.89;101957.25;4953354;29;20838;-43
2021/06/06 01:01:54;;;;;;;5.43;2.42;;;;;;;13.11;63.51;101958.59;4953269;29;20123;-49
2021/06/06 01:04:22;;;;;;;6.15;2.25;;;;;;;13.04;63.59;101954.69;4953924;29;20090;-46
2021/06/06 01:06:53;;;;;;;10.98;2.17;;;;;;;12.94;64.01;101960.59;4952043;29;20079;-43
2021/06/06 01:09:23;;;;;;;5.15;2.15;;;;;;;12.96;64.05;101949.97;4953308;29;20142;-47
2021/06/06 01:11:59;;;;;;;6.60;3.38;;;;;;;13.01;64.12;101958.13;4953482;29;20047;-44
2021/06/06 01:14:42;;;;;;;5.72;2.58;;;;;;;13.07;63.63;101954.06;4953047;29;20047;-44
2021/06/06 01:17:20;;;;;;;6.60;2.50;;;;;;;13.09;63.44;101958.13;4951474;29;20086;-44
2021/06/06 01:19:59;;;;;;;7.38;2.13;;;;;;;13.04;63.63;101968.56;4951232;29;20050;-50
2021/06/06 01:22:37;;;;;;;7.22;2.33;;;;;;;12.89;63.91;101960.78;4952636;28;20058;-46
2021/06/06 01:25:16;;;;;;;5.45;1.95;;;;;;;12.82;64.10;101958.50;4953275;29;20126;-45
2021/06/06 01:27:51;;;;;;;11.80;3.00;;;;;;;12.76;64.48;101960.63;4952366;29;20071;-47
2021/06/06 01:30:25;;;;;;;10.23;3.28;;;;;;;12.69;64.63;101960.34;4953497;29;20055;-47
2021/06/06 01:33:03;;;;;;;7.35;3.45;;;;;;;12.70;64.78;101967.53;4951906;29;20481;-44
2021/06/06 01:35:39;;;;;;;7.45;3.72;;;;;;;12.66;64.83;101966.53;4953043;29;20085;-46
2021/06/06 01:38:17;;;;;;;7.18;3.95;;;;;;;12.66;65.05;101969.31;4931509;29;20146;-45
2021/06/06 01:40:46;;;;;;;6.72;3.08;;;;;;;12.70;64.61;101972.28;4952207;29;20115;-42
2021/06/06 01:43:20;;;;;;;8.88;3.22;;;;;;;12.59;65.00;101966.25;4952752;29;20053;-44
2021/06/06 01:46:11;;;;;;;9.82;3.10;;;;;;;12.45;65.66;101971.16;4952903;29;20493;-44
2021/06/06 01:48:41;;;;;;;8.15;4.15;;;;;;;12.54;65.12;101965.59;4952546;29;20043;-44
2021/06/06 01:51:12;;;;;;;7.80;3.65;;;;;;;12.59;64.87;101971.78;4952886;29;20048;-43
2021/06/06 01:53:43;;;;;;;6.93;3.88;;;;;;;12.58;64.86;101967.38;4940480;29;20131;-46
2021/06/06 01:56:15;;;;;;;6.85;2.97;;;;;;;12.57;64.84;101970.50;4952100;29;20078;-44
2021/06/06 01:58:43;;;;;;;5.55;2.55;;;;;;;12.57;64.83;101974.09;4951709;29;20448;-44
2021/06/06 02:01:19;;;;;;;11.27;2.70;;;;;;;12.48;65.50;101969.66;4955117;28;20175;-44
2021/06/06 02:03:52;;;;;;;8.88;3.13;;;;;;;12.44;65.35;101974.28;4956588;29;20090;-44
2021/06/06 02:06:24;;;;;;;9.98;3.85;;;;;;;12.33;65.59;101968.22;4952606;29;20051;-46
2021/06/06 02:08:51;;;;;;;9.63;3.22;;;;;;;12.23;65.97;101968.56;4955787;29;20082;-44
2021/06/06 02:11:34;;;;;;;12.15;3.90;;;;;;;12.21;66.09;101968.03;4955968;29;20050;-44
2021/06/06 02:14:10;;;;;;;6.35;2.97;;;;;;;12.23;66.17;101966.56;4943379;29;20047;-46
2021/06/06 02:16:45;;;;;;;8.75;2.90;;;;;;;12.25;65.96;101980.16;4956043;29;20502;-43
2021/06/06 02:19:12;;;;;;;9.85;3.20;;;;;;;12.19;65.89;101975.88;4956558;29;20043;-45
2021/06/06 02:21:39;;;;;;;9.25;3.47;;;;;;;12.18;65.94;101977.84;4940015;28;20074;-45
2021/06/06 02:24:06;;;;;;;8.02;4.00;;;;;;;12.09;66.45;101984.53;4957209;28;20051;-43
2021/06/06 02:26:51;;;;;;;9.27;3.60;;;;;;;12.03;66.74;101975.56;4954982;29;20162;-45
2021/06/06 02:29:56;;;;;;;9.05;3.40;;;;;;;12.02;66.79;101973.13;4955684;29;20485;-44
2021/06/06 02:32:44;;;;;;;8.77;2.88;;;;;;;12.06;66.25;101974.09;4955370;29;20554;-44
2021/06/06 02:35:27;;;;;;;5.50;2.90;;;;;;;12.07;66.27;101975.75;4956147;29;20519;-44
2021/06/06 02:38:04;;;;;;;10.35;3.22;;;;;;;12.07;66.16;101981.28;4955833;29;20043;-48
2021/06/06 02:40:39;;;;;;;7.35;3.10;;;;;;;12.00;66.29;101992.84;4956176;29;20134;-52
2021/06/06 02:43:11;;;;;;;6.90;3.03;;;;;;;11.87;66.77;101984.66;4953205;29;20090;-47
2021/06/06 02:45:38;;;;;;;;;;;;;;;11.78;67.01;101979.09;4956025;29;20039;-44
2021/06/06 02:48:29;;;;;;;10.63;3.50;;;;;;;11.81;66.80;101991.53;4951026;29;19932;-43
2021/06/06 02:51:03;;;;;;;9.63;4.45;;;;;;;11.81;66.64;101977.66;4956298;29;20087;-43
2021/06/06 02:53:35;;;;;;;9.45;3.03;;;;;;;11.79;66.80;101979.91;4955837;29;20113;-44
2021/06/06 02:56:23;;;;;;;15.13;4.78;;;;;;;11.85;66.76;101975.84;4955255;29;20102;-43
2021/06/06 02:59:10;;;;;;;8.75;4.65;;;;;;;11.85;66.56;101985.00;4948634;29;20072;-46
2021/06/06 03:01:41;;;;;;;9.60;3.28;;;;;;;11.84;66.50;101977.00;4955265;29;20448;-44
2021/06/06 03:04:12;;;;;;;11.38;3.83;;;;;;;11.79;66.56;101979.91;4938516;29;20090;-44
2021/06/06 03:06:46;;;;;;;7.33;3.03;;;;;;;11.83;66.41;101987.28;4955290;29;20385;-44
2021/06/06 03:09:14;;;;;;;7.88;2.90;;;;;;;11.78;66.48;101972.75;4955656;29;20047;-44
2021/06/06 03:11:44;;;;;;;9.13;2.65;;;;;;;11.77;66.54;101977.47;4953723;28;20507;-44
2021/06/06 03:14:17;;;;;;;5.15;2.40;;;;;;;11.81;66.53;101986.00;4955872;29;20130;-44
2021/06/06 03:16:58;;;;;;;13.68;4.03;;;;;;;11.77;66.71;101973.88;4935757;29;20166;-43
2021/06/06 03:19:30;;;;;;;7.20;2.63;;;;;;;11.78;66.55;101972.75;4955590;29;20092;-45
2021/06/06 03:22:00;;;;;;;5.18;2.03;;;;;;;11.77;66.45;101976.66;4956535;28;20142;-44
2021/06/06 03:24:37;;;;;;;9.75;2.70;;;;;;;11.70;67.33;101977.16;4949121;29;20141;-44
2021/06/06 03:27:07;;;;;;;7.38;3.20;;;;;;;11.69;66.67;101985.78;4954207;29;20460;-43
2021/06/06 03:29:47;;;;;;;11.35;2.75;;;;;;;11.67;66.91;101983.31;4937229;29;20051;-46
2021/06/06 03:32:14;;;;;;;10.43;2.55;;;;;;;11.67;66.63;101983.31;4954520;29;20050;-44
2021/06/06 03:34:41;;;;;;;9.00;3.92;;;;;;;11.62;66.92;101986.22;4954769;29;20098;-44
2021/06/06 03:37:08;;;;;;;11.82;3.47;;;;;;;11.54;67.17;101985.03;4953687;29;20043;-46
2021/06/06 03:39:34;;;;;;;12.65;4.47;;;;;;;11.46;67.43;101994.16;4938051;29;20158;-45
2021/06/06 03:42:02;;;;;;;7.93;2.95;;;;;;;11.39;67.75;101990.22;4954471;29;20154;-45
2021/06/06 03:44:29;;;;;;;7.25;2.50;;;;;;;11.41;67.68;101988.75;4955013;29;20089;-44
2021/06/06 03:46:57;;;;;;;6.85;2.72;;;;;;;11.40;67.76;101989.91;4954113;29;20074;-46
2021/06/06 03:49:25;;;;;;;8.52;2.83;;;;;;;11.34;67.95;101991.19;4954572;29;20138;-45
2021/06/06 03:51:52;;;;;;;11.25;3.15;;;;;;;11.33;67.99;101989.53;4937216;29;20039;-43
2021/06/06 03:54:19;;;;;;;8.57;3.35;;;;;;;11.33;67.92;102000.63;4955001;29;20079;-43
2021/06/06 03:56:49;;;;;;;6.95;2.22;;;;;;;11.32;68.16;101999.00;4953903;29;20493;-45
2021/06/06 03:59:19;;;;;;;9.30;2.92;;;;;;;11.29;68.24;101999.63;4955023;29;20074;-47
2021/06/06 04:01:46;;;;;;;8.48;3.13;;;;;;;11.24;68.45;102002.56;4954347;29;20134;-45
2021/06/06 04:04:14;;;;;;;7.25;2.88;;;;;;;11.20;68.69;101998.78;4953703;29;20043;-51
2021/06/06 04:06:41;;;;;;;8.70;2.53;;;;;;;11.19;68.91;102004.66;4934858;29;20055;-43
2021/06/06 04:09:08;;;;;;;7.63;2.85;;;;;;;11.22;68.78;102004.00;4954481;28;20043;-43
2021/06/06 04:11:38;;;;;;;8.38;3.20;;;;;;;11.23;68.80;102002.84;4953064;29;20043;-48
2021/06/06 04:14:06;;;;;;;9.35;2.78;;;;;;;11.18;68.99;102009.38;4954795;29;20043;-47
2021/06/06 04:16:34;;;;;;;11.07;4.00;;;;;;;11.18;68.95;102008.53;4955608;28;20106;-43
2021/06/06 04:19:02;;;;;;;8.38;2.60;;;;;;;11.19;69.24;102013.78;4954061;29;20076;-43
2021/06/06 04:21:31;;;;;;;15.60;2.80;;;;;;;11.17;69.24;102006.94;4936700;29;20568;-49
2021/06/06 04:23:59;;;;;;;12.27;3.50;;;;;;;11.20;69.31;102007.09;4952540;28;20106;-44
2021/06/06 04:26:26;;;;;;;7.68;3.45;;;;;;;11.21;69.37;102010.69;4953376;28;20137;-48
2021/06/06 04:28:53;;;;;;;6.35;2.53;;;;;;;11.19;69.48;102005.47;4954078;29;20121;-44
2021/06/06 04:31:20;;;;;;;7.18;3.22;;;;;;;11.22;69.53;102009.56;4953397;29;20077;-44
2021/06/06 04:33:48;;;;;;;5.88;2.50;;;;;;;11.22;69.66;102013.16;4953346;29;20130;-45
2021/06/06 04:36:15;;;;;;;13.60;3.80;;;;;;;11.29;69.52;102015.44;4955082;28;20098;-43
2021/06/06 04:38:42;;;;;;;12.13;3.00;;;;;;;11.25;69.69;102012.50;4954318;29;20083;-43
2021/06/06 04:41:14;;;;;;;6.40;2.50;;;;;;;11.22;69.79;102015.94;4952450;28;20047;-44
2021/06/06 04:43:41;;;;;;;5.97;2.55;;;;;;;11.21;69.96;102011.50;4953822;29;20445;-43
2021/06/06 04:46:09;;;;;;;10.10;2.85;;;;;;;11.24;69.73;102008.09;4952871;29;20388;-44
2021/06/06 04:48:43;;;;;;;5.15;3.05;;;;;;;11.21;70.21;102011.50;4954358;29;20441;-43
2021/06/06 04:51:17;;;;;;;8.32;3.30;;;;;;;11.16;70.27;102011.66;4954010;29;20094;-44
2021/06/06 04:53:44;;;;;;;12.15;2.95;;;;;;;11.10;70.79;102021.22;4953753;29;20132;-45
2021/06/06 04:56:14;;;;;;;10.00;3.28;;;;;;;11.09;70.79;102022.38;4960502;28;20078;-45
2021/06/06 04:58:41;;;;;;;6.47;3.00;;;;;;;11.11;70.83;102014.56;4936493;29;20102;-45
2021/06/06 05:01:08;;;;;;;6.53;3.50;;;;;;;11.16;70.54;102019.13;4953584;28;20047;-45
2021/06/06 05:03:34;;;;;;;7.80;2.58;;;;;;;11.19;70.74;102026.81;4953483;29;20070;-49
2021/06/06 05:06:02;;;;;;;12.80;2.78;;;;;;;11.16;70.91;102022.72;4935741;29;20130;-43
2021/06/06 05:08:29;;;;;;;5.88;2.47;;;;;;;11.18;71.03;102020.47;4953712;29;20425;-42
2021/06/06 05:10:57;;;;;;;6.03;2.97;;;;;;;11.21;70.99;102025.38;4953108;29;20074;-43
2021/06/06 05:13:24;;;;;;;17.58;4.60;;;;;;;11.30;70.75;102029.00;4953026;29;20097;-43
2021/06/06 05:15:52;;;;;;;6.72;2.60;;;;;;;11.33;70.97;102036.66;4934710;29;20063;-44
2021/06/06 05:18:20;;;;;;;7.15;2.53;;;;;;;11.36;70.99;102036.03;4952923;29;20066;-45
2021/06/06 05:20:49;;;;;;;7.18;2.70;;;;;;;11.41;70.74;102029.56;4953213;29;20122;-43
2021/06/06 05:23:18;;;;;;;13.90;3.40;;;;;;;11.40;70.95;102037.03;4955704;28;20086;-44
2021/06/06 05:25:48;;;;;;;11.05;2.80;;;;;;;11.42;71.10;102045.84;4952479;28;20125;-44
2021/06/06 05:28:21;;;;;;;12.25;2.50;;;;;;;11.40;71.29;102045.38;4952669;29;20043;-44
2021/06/06 05:30:48;;;;;;;9.85;3.78;;;;;;;11.44;71.24;102054.66;4952253;29;20556;-47
2021/06/06 05:33:15;;;;;;;11.88;3.45;;;;;;;11.47;71.37;102044.88;4953439;28;20069;-43
2021/06/06 05:35:42;;;;;;;7.45;3.05;;;;;;;11.48;71.54;102052.91;4951478;28;20043;-43
2021/06/06 05:38:11;;;;;;;6.82;3.05;;;;;;;11.43;71.97;102057.78;4952890;29;20059;-43
2021/06/06 05:40:40;;;;;;;11.35;4.75;;;;;;;11.38;72.10;102047.66;4952641;29;20047;-43
2021/06/06 05:43:07;;;;;;;12.10;3.08;;;;;;;11.43;72.02;102061.38;4953371;29;20070;-44
2021/06/06 05:45:35;;;;;;;8.68;3.28;;;;;;;11.46;72.13;102060.72;4938617;29;20101;-45
2021/06/06 05:48:04;;;;;;;8.02;3.47;;;;;;;11.50;72.22;102060.91;4952566;29;20079;-46
2021/06/06 05:50:34;;;;;;;10.55;2.83;;;;;;;11.49;72.27;102054.53;4953025;29;20046;-44
2021/06/06 05:53:02;;;;;;;10.18;4.25;;;;;;;11.58;72.24;102058.16;4952606;29;20150;-46
2021/06/06 05:55:29;;;;;;;11.05;4.45;;;;;;;11.63;72.22;102055.25;4956633;28;20039;-43
2021/06/06 05:57:56;;;;;;;10.57;3.22;;;;;;;11.62;72.38;102056.38;4952948;29;20256;-44
2021/06/06 06:00:36;;;;;;;14.52;3.85;;;;;;;11.61;73.17;102051.97;4952547;29;20058;-43
2021/06/06 06:03:04;;;;;;;10.18;2.85;;;;;;;11.61;72.87;102046.44;4953087;29;20106;-44
2021/06/06 06:05:33;;;;;;;10.50;3.83;;;;;;;11.65;72.86;102057.69;4934621;29;20055;-45
2021/06/06 06:08:32;;;;;;;14.23;4.30;;;;;;;11.66;74.00;102045.47;4952878;29;20047;-43
2021/06/06 06:11:04;;;;;;;11.73;4.35;;;;;;;11.66;73.25;102048.25;4937926;29;20055;-43
2021/06/06 06:13:32;;;;;;;12.52;4.10;;;;;;;11.73;73.25;102056.16;4953084;29;20051;-43
2021/06/06 06:16:02;;;;;;;13.18;4.75;;;;;;;11.78;73.42;102053.22;4951954;28;20055;-44
2021/06/06 06:18:31;;;;;;;11.75;4.78;;;;;;;11.84;73.23;102057.47;4952613;29;20043;-43
2021/06/06 06:20:58;;;;;;;10.68;4.93;;;;;;;11.90;73.37;102059.78;4952331;29;20067;-43
2021/06/06 06:23:26;;;;;;;10.88;4.90;;;;;;;11.98;73.37;102060.94;4953630;28;20129;-44
2021/06/06 06:25:54;;;;;;;25.85;6.32;;;;;;;12.05;73.28;102056.53;4951719;29;20477;-44
2021/06/06 06:28:23;;;;;;;9.90;4.68;;;;;;;12.06;73.40;102062.91;4952070;29;20051;-43
2021/06/06 06:30:49;;;;;;;12.35;4.35;;;;;;;12.09;73.40;102060.31;4952693;29;20047;-43
2021/06/06 06:33:17;;;;;;;12.75;5.05;;;;;;;12.14;73.35;102060.16;4952828;29;20094;-46
2021/06/06 06:35:44;;;;;;;10.45;4.65;;;;;;;12.16;73.80;102062.59;4953189;28;20084;-45
2021/06/06 06:38:12;;;;;;;14.40;4.47;;;;;;;12.25;73.40;102068.19;4952396;29;20055;-47
2021/06/06 06:40:40;;;;;;;6.93;5.07;;;;;;;12.32;73.39;102063.78;4951195;28;20060;-46
2021/06/06 06:43:07;;;;;;;8.02;4.10;;;;;;;12.39;73.42;102069.66;4952207;29;20054;-47
2021/06/06 06:45:37;;;;;;;9.30;3.40;;;;;;;12.46;73.36;102061.69;4945960;28;20166;-44
2021/06/06 06:48:09;;;;;;;11.10;3.65;;;;;;;12.52;73.43;102065.91;4951707;29;20055;-45
2021/06/06 06:50:36;;;;;;;;;;;;;;;12.58;73.47;102075.72;4962767;28;20074;-45
2021/06/06 06:53:04;;;;;;;15.68;4.32;;;;;;;12.67;73.22;102072.94;4956264;28;19926;-46
2021/06/06 06:55:31;;;;;;;8.88;3.17;;;;;;;12.78;73.07;102066.75;4952782;29;20517;-47
2021/06/06 06:58:00;;;;;;;12.45;3.42;;;;;;;12.92;73.33;102068.53;4952932;29;20047;-47
2021/06/06 07:00:32;;;;;;;10.50;3.90;;;;;;;13.05;73.41;102056.41;4952062;29;20075;-44
2021/06/06 07:03:06;;;;;;;8.55;3.08;;;;;;;13.16;73.42;102063.25;4953331;29;20063;-44
2021/06/06 07:05:33;;;;;;;8.93;3.15;;;;;;;13.30;73.59;102063.88;4949813;29;20130;-41
2021/06/06 07:08:02;;;;;;;10.88;3.28;;;;;;;13.41;73.37;102059.59;4953126;28;20043;-45
2021/06/06 07:10:32;;;;;;;5.93;2.40;;;;;;;13.51;73.51;102064.81;4953321;28;20098;-42
2021/06/06 07:12:59;;;;;;;10.50;3.20;;;;;;;13.57;73.73;102069.03;4952993;29;20094;-42
2021/06/06 07:15:26;;;;;;;7.10;2.63;;;;;;;13.71;74.07;102063.25;4934581;29;20120;-44
2021/06/06 07:17:53;;;;;;;11.02;2.75;;;;;;;13.86;73.92;102060.72;4953530;28;20043;-46
2021/06/06 07:20:29;;;;;;;10.88;2.83;;;;;;;13.96;73.97;102065.09;4951860;29;20047;-43
2021/06/06 07:22:57;;;;;;;7.80;2.58;;;;;;;14.12;74.38;102068.09;4954550;28;20046;-44
2021/06/06 07:25:26;;;;;;;8.55;2.58;;;;;;;14.28;74.34;102066.38;4951991;28;20126;-45
2021/06/06 07:27:54;;;;;;;7.15;2.83;;;;;;;14.43;74.30;102052.69;4934470;29;20043;-45
2021/06/06 07:30:26;;;;;;;11.13;4.05;;;;;;;14.58;74.53;102068.81;4950509;29;20779;-45
2021/06/06 07:32:54;;;;;;;9.27;3.22;;;;;;;14.82;74.88;102056.13;4952306;29;20043;-45
2021/06/06 07:35:27;;;;;;;8.45;2.65;;;;;;;15.10;75.21;102054.38;4952353;29;20416;-44
2021/06/06 07:37:55;;;;;;;7.00;3.42;;;;;;;15.41;74.94;102056.66;4961593;28;20663;-44
2021/06/06 07:40:25;;;;;;;11.00;3.28;;;;;;;15.76;74.22;102066.25;4935518;29;20138;-46
2021/06/06 07:42:52;;;;;;;10.98;3.00;;;;;;;16.03;73.86;102057.19;4952506;29;20055;-44
2021/06/06 07:45:20;;;;;;;7.45;2.88;;;;;;;16.27;72.11;102061.94;4951482;28;20086;-50
2021/06/06 07:47:47;;;;;;;8.13;2.35;;;;;;;16.76;71.06;102065.47;4950666;29;20070;-45
2021/06/06 07:50:19;;;;;;;7.40;2.03;;;;;;;17.28;68.52;102060.53;4934411;29;20051;-50
2021/06/06 07:52:46;;;;;;;9.52;2.60;;;;;;;17.81;66.61;102061.97;4947882;29;20142;-49
2021/06/06 07:55:16;;;;;;;8.75;3.80;;;;;;;18.42;64.73;102056.59;4951453;28;20039;-46
2021/06/06 07:57:44;;;;;;;8.57;2.28;;;;;;;19.11;62.91;102064.09;4950782;28;20051;-46
2021/06/06 08:00:16;;;;;;;7.70;3.20;;;;;;;19.84;61.08;102054.59;4950847;29;20416;-51
2021/06/06 08:02:43;;;;;;;7.53;2.45;;;;;;;20.38;59.46;102059.88;4943898;29;20540;-46
2021/06/06 08:05:12;;;;;;;9.55;2.17;;;;;;;20.74;57.58;102055.53;4949210;29;20101;-45
2021/06/06 08:07:39;;;;;;;8.90;2.20;;;;;;;21.19;55.96;102058.09;4949264;28;20071;-46
2021/06/06 08:10:10;;;;;;;5.85;2.25;;;;;;;21.62;54.38;102050.88;4950602;29;20164;-45
2021/06/06 08:12:37;;;;;;;7.25;1.80;;;;;;;22.02;53.21;102052.84;4950977;29;20954;-43
2021/06/06 08:15:07;;;;;;;6.68;1.80;;;;;;;22.32;51.94;102054.25;4951084;28;20047;-45
2021/06/06 08:17:34;;;;;;;5.80;1.80;;;;;;;22.47;51.16;102058.00;4952045;29;20223;-45
2021/06/06 08:20:05;;;;;;;9.55;2.15;;;;;;;22.79;49.60;102052.53;4949328;29;20051;-44
2021/06/06 08:22:32;;;;;;;6.10;1.67;;;;;;;23.05;49.12;102055.03;4951876;28;20496;-45
2021/06/06 08:24:59;;;;;;;5.07;2.10;;;;;;;22.58;48.86;102050.41;4951186;29;20126;-44
2021/06/06 08:27:26;;;;;;;15.23;2.85;;;;;;;22.50;48.82;102050.75;4951706;29;20043;-45
2021/06/06 08:29:53;;;;;;;4.97;1.77;;;;;;;22.67;47.88;102044.38;4949551;29;20113;-45
2021/06/06 08:32:20;;;;;;;6.88;2.15;;;;;;;23.07;46.89;102037.69;4952578;29;20456;-44
2021/06/06 08:34:48;;;;;;;4.90;1.63;;;;;;;23.27;46.62;102051.03;4933707;29;20061;-45
2021/06/06 08:37:15;;;;;;;5.20;1.20;;;;;;;23.68;45.92;102039.41;4950874;29;20400;-44
2021/06/06 08:39:41;;;;;;;10.15;2.00;;;;;;;23.93;45.07;102043.06;4950487;29;20202;-45
2021/06/06 08:42:18;;;;;;;7.85;1.70;;;;;;;23.97;44.40;102033.34;4949986;29;20138;-47
2021/06/06 08:44:57;;;;;;;6.53;1.60;;;;;;;23.56;44.45;102043.47;4948465;29;20853;-45
2021/06/06 08:47:27;;;;;;;5.60;1.33;;;;;;;22.87;44.92;102034.41;4952169;29;20107;-45
2021/06/06 08:49:58;;;;;;;4.57;1.20;;;;;;;22.68;45.06;102023.44;4950631;29;20134;-44
2021/06/06 08:52:41;;;;;;;4.40;1.50;;;;;;;22.22;45.34;102034.44;4950006;29;20093;-45
2021/06/06 08:55:35;;;;;;;3.17;1.80;;;;;;;21.77;45.61;102027.25;4950811;29;20086;-46
2021/06/06 08:58:18;;;;;;;5.05;2.05;;;;;;;21.31;45.72;102026.03;4951008;29;20135;-47
2021/06/06 09:01:07;;;;;;;4.32;1.35;;;;;;;20.83;46.79;102025.91;4950119;29;20477;-45
2021/06/06 09:03:34;;;;;;;6.85;1.73;;;;;;;20.44;47.11;102024.56;4950358;29;20469;-44
2021/06/06 09:06:06;;;;;;;4.53;1.48;;;;;;;20.24;47.44;102011.84;4949364;29;20106;-44
2021/06/06 09:08:35;;;;;;;4.68;1.30;;;;;;;20.95;47.46;102014.38;4949462;29;20043;-49
2021/06/06 09:11:07;;;;;;;3.38;1.40;;;;;;;21.63;47.16;102018.69;4950865;28;20058;-44
2021/06/06 09:13:34;;;;;;;3.08;1.35;;;;;;;22.24;46.21;102015.91;4949920;29;20047;-48
2021/06/06 09:16:24;;;;;;;5.45;2.10;;;;;;;22.40;44.83;102018.41;4948952;28;20117;-45
2021/06/06 09:19:25;;;;;;;4.15;1.58;;;;;;;22.40;44.77;102024.06;4948398;29;20047;-44
2021/06/06 09:21:58;;;;;;;3.60;1.15;;;;;;;22.02;45.18;102017.00;4929073;28;20141;-46
2021/06/06 09:24:42;;;;;;;5.78;1.85;;;;;;;22.30;44.57;102022.81;4956856;28;20142;-47
2021/06/06 09:27:12;;;;;;;3.08;1.42;;;;;;;22.80;44.44;102014.59;4932367;29;20421;-46
2021/06/06 09:29:41;;;;;;;2.30;1.00;;;;;;;23.20;43.94;102019.97;4948809;28;20051;-45
2021/06/06 09:32:15;;;;;;;4.18;1.30;;;;;;;23.74;42.59;102018.00;4947099;28;20465;-46
2021/06/06 09:34:54;;;;;;;6.07;1.48;;;;;;;24.07;41.59;102011.91;4938091;28;20843;-48
2021/06/06 10:03:05;;;;;;;3.60;1.10;;;;;;;21.29;43.42;102020.00;4871009;29;20150;-46
2021/06/06 10:05:38;;;;;;;5.18;1.20;;;;;;;21.06;43.32;102018.16;4874713;29;20100;-48
2021/06/06 10:08:20;;;;;;;4.60;2.17;;;;;;;21.25;43.72;102011.50;4874826;29;20037;-46
2021/06/06 10:10:51;;;;;;;8.38;1.20;;;;;;;21.82;43.31;102009.97;4868386;29;20053;-46
2021/06/06 10:13:26;;;;;;;5.28;1.35;;;;;;;22.21;43.14;102016.69;4876473;29;20506;-45
2021/06/06 10:16:35;;;;;;;2.40;0.65;;;;;;;22.19;42.55;102007.84;4877427;29;20101;-46
2021/06/06 10:19:05;;;;;;;4.22;1.20;;;;;;;21.82;42.45;102004.31;4818257;29;22340;-46
2021/06/06 10:21:34;;;;;;;3.88;1.10;;;;;;;21.47;43.08;102004.06;4869949;29;20159;-49
2021/06/06 10:24:11;;;;;;;3.17;1.23;;;;;;;21.32;43.62;102005.09;4889516;29;20128;-45
2021/06/06 10:26:44;;;;;;;5.78;1.20;;;;;;;21.33;43.72;102001.09;4880034;29;20053;-53
2021/06/06 10:29:34;;;;;;;2.80;0.95;;;;;;;21.36;43.17;102000.34;4883563;29;20132;-46
2021/06/06 10:32:09;;;;;;;4.97;1.00;;;;;;;21.63;43.09;101990.50;4880801;29;20116;-48
2021/06/06 10:35:14;;;;;;;6.35;1.50;;;;;;;21.70;43.09;101997.00;4880753;29;20044;-47
2021/06/06 10:37:44;;;;;;;3.70;1.17;;;;;;;21.44;43.45;101997.19;4862304;29;20144;-46
2021/06/06 10:40:31;;;;;;;6.53;1.20;;;;;;;21.09;43.45;101989.22;4880507;29;20081;-46
2021/06/06 10:43:07;;;;;;;3.55;1.20;;;;;;;20.86;44.02;101990.53;4880220;29;20461;-47
2021/06/06 10:45:59;;;;;;;5.40;1.17;;;;;;;20.79;44.25;101982.81;4880513;29;20087;-46
2021/06/06 10:48:34;;;;;;;2.55;0.90;;;;;;;20.64;44.38;101984.66;4882374;29;20080;-50
2021/06/06 10:51:09;;;;;;;3.72;1.63;;;;;;;20.54;44.72;101984.53;4880093;29;20072;-46
2021/06/06 10:53:37;;;;;;;3.47;1.02;;;;;;;20.54;44.73;101988.13;4866089;29;20147;-49
2021/06/06 10:56:30;;;;;;;2.13;1.02;;;;;;;20.64;44.83;101979.03;4888783;29;20048;-47
2021/06/06 10:59:27;;;;;;;3.17;1.60;;;;;;;20.57;45.03;101989.41;4880021;29;20040;-52
2021/06/06 11:01:56;;;;;;;3.28;1.30;;;;;;;20.71;45.21;101989.56;4879221;29;20060;-46
2021/06/06 11:04:34;;;;;;;4.13;1.83;;;;;;;20.97;45.54;101986.63;4880231;29;20053;-49
2021/06/06 11:07:26;;;;;;;2.13;1.00;;;;;;;20.97;44.42;101989.44;4879765;29;20085;-50
2021/06/06 11:09:58;;;;;;;5.03;1.58;;;;;;;20.75;44.82;101993.22;4885453;29;20061;-50
2021/06/06 11:12:41;;;;;;;3.92;1.00;;;;;;;20.45;45.14;101992.44;4883139;29;20384;-48
2021/06/06 11:15:31;;;;;;;3.22;1.40;;;;;;;20.23;45.47;101993.31;4868560;29;20053;-47
2021/06/06 11:18:17;;;;;;;3.22;1.13;;;;;;;20.02;46.25;101999.44;4880006;29;20140;-45
2021/06/06 11:20:52;;;;;;;2.60;1.27;;;;;;;19.75;46.67;101995.81;4879736;29;20563;-47
2021/06/06 11:23:41;;;;;;;4.10;1.75;;;;;;;19.54;47.37;101995.47;4881618;29;20053;-49
2021/06/06 11:26:35;;;;;;;6.05;2.00;;;;;;;19.53;47.69;101991.06;4879407;29;20076;-47
2021/06/06 11:29:07;;;;;;;5.82;1.55;;;;;;;19.51;47.81;101987.81;4878722;29;20048;-49
2021/06/06 11:31:36;;;;;;;4.63;1.48;;;;;;;19.61;47.80;101990.00;4879859;29;20144;-51
2021/06/06 11:34:05;;;;;;;3.42;1.45;;;;;;;19.68;47.81;101987.28;4874435;29;20511;-49
2021/06/06 11:36:36;;;;;;;4.68;1.48;;;;;;;19.75;47.82;101987.38;4869892;29;20642;-48
2021/06/06 11:39:17;;;;;;;3.92;1.25;;;;;;;19.86;48.13;101981.94;4872278;29;20057;-49
2021/06/06 11:41:48;;;;;;;4.47;1.30;;;;;;;20.02;47.75;101991.81;4869264;29;20551;-49
2021/06/06 11:44:25;;;;;;;7.45;2.97;;;;;;;19.98;48.19;101988.16;4876141;29;20136;-48
2021/06/06 11:47:17;;;;;;;5.88;2.17;;;;;;;19.82;48.34;101993.16;4876408;29;20140;-49
2021/06/06 11:49:57;;;;;;;3.50;1.25;;;;;;;19.55;48.62;101985.06;4876569;29;20076;-49
2021/06/06 11:52:35;;;;;;;4.75;1.30;;;;;;;19.42;49.23;101995.69;4873168;29;20176;-48
2021/06/06 11:55:24;;;;;;;5.07;1.40;;;;;;;19.25;48.89;101998.94;4874218;29;20104;-49
2021/06/06 11:58:09;;;;;;;8.68;1.65;;;;;;;19.00;49.90;101992.06;4875799;29;20127;-51
2021/06/06 12:00:56;;;;;;;6.32;1.17;;;;;;;18.87;49.82;101996.22;4874303;29;20049;-53
2021/06/06 12:03:29;;;;;;;6.65;1.52;;;;;;;18.74;49.62;102004.00;4875234;29;20060;-46
2021/06/06 12:06:10;;;;;;;5.13;1.77;;;;;;;18.66;49.97;102003.06;4876038;29;20060;-48
2021/06/06 12:08:37;;;;;;;5.32;1.40;;;;;;;18.72;49.41;102003.53;4874995;29;20128;-45
2021/06/06 12:11:08;;;;;;;4.95;1.13;;;;;;;18.71;48.99;102007.56;4882253;29;20120;-49
2021/06/06 12:13:39;;;;;;;2.65;0.98;;;;;;;18.68;48.96;101997.88;4875209;29;20046;-40
2021/06/06 12:16:14;;;;;;;5.30;1.27;;;;;;;18.64;48.35;102008.19;4873710;29;20057;-53